Terminal Aerodrome Forecast
Issued by NWS Flagstaff, AZ

Home | Current Version | Previous Version | Text Only | Print | Product List | Glossary On
Versions: 1 2 3 4 5 6 7 8 9 10 11 12
000
FTUS45 KFGZ 161100
TAFINW
TAF
KINW 161139Z 1612/1712 VRB06KT P6SM FEW100 SCT200
     FM161900 11008KT P6SM SCT080 BKN200 PROB30 1621/1702 VRB15G32KT
      6SM TSRA BKN070CB
     FM170200 13006KT P6SM SCT060 OVC200=

USA.gov is the U.S. government's official web portal to all federal, state and local government web resources and services.